createdAt,value
2022-10-14T00:02:52.231Z,10.63
2022-10-14T00:05:54.621Z,11.55
2022-10-14T00:09:10.301Z,14.05
2022-10-14T00:12:12.764Z,12.55
2022-10-14T00:15:16.787Z,16.30
2022-10-14T00:18:19.417Z,11.73
2022-10-14T00:21:22.143Z,11.45
2022-10-14T00:24:24.610Z,13.90
2022-10-14T00:27:26.999Z,17.15
2022-10-14T00:30:30.735Z,14.48
2022-10-14T00:33:35.506Z,12.05
2022-10-14T00:36:37.920Z,14.93
2022-10-14T00:39:40.313Z,13.82
2022-10-14T00:42:42.791Z,14.88
2022-10-14T00:45:46.526Z,14.43
2022-10-14T00:48:48.984Z,12.57
2022-10-14T00:51:53.044Z,12.82
2022-10-14T00:54:57.822Z,16.92
2022-10-14T00:58:03.528Z,12.50
2022-10-14T01:01:07.858Z,13.32
2022-10-14T01:04:10.704Z,12.68
2022-10-14T01:07:17.356Z,13.32
2022-10-14T01:10:25.000Z,13.85
2022-10-14T01:13:29.390Z,11.70
2022-10-14T01:16:40.140Z,11.85
2022-10-14T01:19:53.743Z,12.23
2022-10-14T01:22:59.386Z,14.70
2022-10-14T01:26:08.030Z,13.15
2022-10-14T01:29:18.588Z,11.63
2022-10-14T01:32:27.725Z,13.07
2022-10-14T01:35:33.893Z,14.57
2022-10-14T01:38:38.597Z,11.73
2022-10-14T01:41:46.349Z,12.85
2022-10-14T01:44:54.122Z,15.90
2022-10-14T01:47:59.010Z,14.10
2022-10-14T01:51:07.618Z,17.75
2022-10-14T01:54:11.801Z,17.13
2022-10-14T01:57:19.143Z,13.95
2022-10-14T02:00:21.875Z,20.10
2022-10-14T02:03:25.791Z,15.85
2022-10-14T02:06:30.662Z,17.50
2022-10-14T02:09:39.047Z,19.10
2022-10-14T02:12:55.548Z,14.40
2022-10-14T02:16:03.932Z,18.85
2022-10-14T02:19:14.601Z,14.85
2022-10-14T02:22:26.336Z,14.15
2022-10-14T02:25:31.059Z,17.48
2022-10-14T02:28:34.769Z,17.38
2022-10-14T02:31:38.941Z,18.95
2022-10-14T02:34:43.225Z,20.60
2022-10-14T02:37:46.574Z,15.88
2022-10-14T02:40:50.713Z,18.83
2022-10-14T02:43:53.086Z,21.13
2022-10-14T02:46:55.987Z,20.02
2022-10-14T02:49:59.722Z,17.65
2022-10-14T02:53:02.121Z,14.88
2022-10-14T02:56:04.757Z,22.60
2022-10-14T02:59:09.652Z,14.95
2022-10-14T03:02:13.548Z,15.18
2022-10-14T03:05:19.437Z,17.15
2022-10-14T03:08:22.329Z,14.63
2022-10-14T03:11:24.950Z,22.63
2022-10-14T03:14:31.059Z,22.00
2022-10-14T03:17:33.661Z,22.95
2022-10-14T03:20:41.654Z,22.48
2022-10-14T03:23:44.826Z,18.75
2022-10-14T03:26:48.501Z,17.38
2022-10-14T03:29:54.918Z,19.50
2022-10-14T03:32:59.609Z,25.25
2022-10-14T03:36:23.453Z,20.40
2022-10-14T03:39:28.734Z,21.67
2022-10-14T03:42:38.428Z,21.70
2022-10-14T03:45:42.430Z,23.35
2022-10-14T03:48:46.528Z,20.55
2022-10-14T03:51:50.277Z,20.92
2022-10-14T03:54:58.659Z,23.05
2022-10-14T03:58:01.972Z,23.17
2022-10-14T04:01:06.035Z,25.50
2022-10-14T04:04:22.494Z,22.00
2022-10-14T04:07:26.858Z,20.48
2022-10-14T04:10:36.066Z,23.38
2022-10-14T04:13:39.106Z,25.73
2022-10-14T04:16:44.950Z,26.08
2022-10-14T04:19:51.601Z,18.80
2022-10-14T04:23:00.012Z,23.58
2022-10-14T04:26:04.237Z,24.17
2022-10-14T04:29:07.083Z,21.02
2022-10-14T04:32:20.670Z,24.70
2022-10-14T04:35:28.708Z,24.25
2022-10-14T04:38:34.836Z,19.67
2022-10-14T04:41:42.374Z,19.05
2022-10-14T04:44:56.280Z,18.30
2022-10-14T04:48:09.021Z,18.63
2022-10-14T04:51:17.048Z,24.52
2022-10-14T04:54:53.309Z,26.02
2022-10-14T04:58:07.611Z,20.95
2022-10-14T05:01:17.519Z,19.70
2022-10-14T05:04:20.234Z,18.00
2022-10-14T05:07:24.484Z,19.55
2022-10-14T05:10:33.774Z,25.15
2022-10-14T05:13:38.227Z,22.75
2022-10-14T05:16:43.793Z,21.77
2022-10-14T05:20:32.618Z,23.83
2022-10-14T05:23:35.331Z,23.98
2022-10-14T05:26:39.302Z,25.20
2022-10-14T05:29:45.373Z,24.33
2022-10-14T05:32:48.921Z,34.35
2022-10-14T05:35:59.035Z,23.88
2022-10-14T05:39:07.842Z,30.88
2022-10-14T05:42:12.891Z,27.65
2022-10-14T05:45:16.956Z,35.33
2022-10-14T05:48:25.609Z,30.27
2022-10-14T05:51:28.881Z,26.05
2022-10-14T05:54:39.175Z,27.27
2022-10-14T05:57:44.817Z,37.25
2022-10-14T06:00:52.106Z,37.97
2022-10-14T06:03:55.235Z,35.28
2022-10-14T06:06:57.729Z,29.95
2022-10-14T06:10:00.157Z,35.55
2022-10-14T06:13:03.978Z,28.30
2022-10-14T06:16:09.494Z,34.78
2022-10-14T06:19:11.887Z,31.10
2022-10-14T06:22:14.366Z,31.95
2022-10-14T06:25:16.808Z,31.50
2022-10-14T06:28:20.765Z,27.75
2022-10-14T06:31:23.208Z,30.30
2022-10-14T06:34:25.647Z,27.98
2022-10-14T06:37:28.054Z,32.33
2022-10-14T06:40:30.466Z,30.95
2022-10-14T06:43:35.270Z,30.00
2022-10-14T06:46:37.693Z,31.88
2022-10-14T06:49:40.255Z,34.63
2022-10-14T06:52:42.669Z,23.92
2022-10-14T06:55:45.081Z,32.63
2022-10-14T06:58:48.939Z,22.67
2022-10-14T07:01:51.461Z,26.08
2022-10-14T07:04:53.965Z,25.38
2022-10-14T07:07:58.362Z,30.27
2022-10-14T07:11:01.278Z,28.52
2022-10-14T07:14:12.834Z,23.48
2022-10-14T07:17:15.337Z,26.85
2022-10-14T07:20:18.036Z,23.55
2022-10-14T07:23:24.273Z,28.98
2022-10-14T07:26:30.913Z,29.77
2022-10-14T07:29:35.256Z,25.83
2022-10-14T07:32:52.726Z,31.20
2022-10-14T07:35:55.458Z,23.05
2022-10-14T07:42:59.939Z,26.85
2022-10-14T07:46:05.179Z,27.00
2022-10-14T07:49:08.853Z,24.75
2022-10-14T07:52:11.411Z,19.98
2022-10-14T07:55:15.891Z,35.42
2022-10-14T07:58:25.237Z,30.77
2022-10-14T08:01:46.773Z,26.65
2022-10-14T08:04:52.693Z,30.35
2022-10-14T08:07:55.316Z,33.30
2022-10-14T08:11:01.215Z,28.42
2022-10-14T08:14:03.739Z,30.63
2022-10-14T08:17:07.570Z,27.60
2022-10-14T08:20:10.571Z,34.63
2022-10-14T08:23:17.432Z,34.70
2022-10-14T08:26:22.825Z,35.15
2022-10-14T08:29:26.591Z,28.48
2022-10-14T08:32:30.335Z,31.52
2022-10-14T08:35:32.808Z,28.60
2022-10-14T08:38:35.362Z,34.35
2022-10-14T08:45:40.045Z,27.33
2022-10-14T08:48:52.131Z,37.15
2022-10-14T08:51:56.700Z,31.05
2022-10-14T08:55:01.022Z,32.20
2022-10-14T08:58:10.415Z,35.05
2022-10-14T09:01:16.215Z,27.85
2022-10-14T09:04:20.177Z,32.58
2022-10-14T09:07:22.922Z,33.80
2022-10-14T09:10:27.974Z,28.73
2022-10-14T09:13:32.310Z,31.70
2022-10-14T09:16:36.972Z,28.23
2022-10-14T09:39:54.344Z,26.15
2022-10-14T09:42:58.984Z,31.10
2022-10-14T09:46:02.776Z,26.77
2022-10-14T09:49:05.914Z,29.50
2022-10-14T09:52:11.560Z,29.38
2022-10-14T09:55:20.007Z,25.65
2022-10-14T09:58:26.738Z,23.92
2022-10-14T10:01:30.626Z,42.05
2022-10-14T10:04:37.966Z,28.77
2022-10-14T10:07:40.898Z,32.20
2022-10-14T10:11:00.482Z,37.42
2022-10-14T10:14:16.710Z,29.23
2022-10-14T10:17:20.822Z,37.03
2022-10-14T10:20:28.687Z,25.67
2022-10-14T10:23:31.698Z,27.67
2022-10-14T10:26:36.007Z,32.60
2022-10-14T10:29:39.393Z,27.73
2022-10-14T10:32:44.905Z,29.10
2022-10-14T10:36:02.335Z,31.83
2022-10-14T10:39:06.973Z,31.17
2022-10-14T10:42:15.329Z,26.38
2022-10-14T10:45:24.260Z,28.67
2022-10-14T10:48:32.229Z,23.85
2022-10-14T10:51:40.284Z,23.65
2022-10-14T10:54:48.769Z,18.35
2022-10-14T10:58:02.623Z,24.65
2022-10-14T11:01:13.937Z,31.35
2022-10-14T11:04:30.932Z,21.77
2022-10-14T11:07:56.311Z,19.50
2022-10-14T11:11:31.534Z,17.05
2022-10-14T11:14:49.765Z,20.88
2022-10-14T11:17:58.743Z,17.90
2022-10-14T11:21:10.374Z,19.85
2022-10-14T11:27:23.922Z,13.00
2022-10-14T11:30:33.424Z,14.15
2022-10-14T11:33:48.575Z,12.88
2022-10-14T11:36:57.246Z,13.40
2022-10-14T11:40:03.883Z,16.88
2022-10-14T11:43:13.696Z,11.25
2022-10-14T11:46:18.640Z,12.88
2022-10-14T11:49:27.277Z,17.27
2022-10-14T11:52:32.820Z,13.27
2022-10-14T11:55:40.699Z,13.50
2022-10-14T11:58:46.245Z,11.82
2022-10-14T12:01:52.208Z,10.13
2022-10-14T12:04:58.622Z,11.93
2022-10-14T12:08:06.069Z,9.07
2022-10-14T12:11:11.910Z,10.15
2022-10-14T12:14:17.694Z,10.88
2022-10-14T12:17:24.125Z,12.20
2022-10-14T12:20:32.464Z,11.95
2022-10-14T12:27:16.417Z,11.57
2022-10-14T12:30:41.089Z,12.98
2022-10-14T12:33:58.645Z,11.18
2022-10-14T12:37:27.247Z,10.50
2022-10-14T12:40:36.816Z,8.63
2022-10-14T12:43:43.868Z,11.57
2022-10-14T12:46:50.410Z,9.32
2022-10-14T12:49:56.455Z,12.18
2022-10-14T12:53:04.768Z,8.80
2022-10-14T12:56:11.483Z,10.30
2022-10-14T12:59:23.103Z,7.93
2022-10-14T13:02:32.629Z,6.28
2022-10-14T13:05:37.642Z,7.68
2022-10-14T13:08:42.835Z,7.38
2022-10-14T13:11:46.724Z,7.90
2022-10-14T13:14:59.389Z,8.40
2022-10-14T13:18:34.323Z,10.88
2022-10-14T13:21:53.995Z,9.80
2022-10-14T13:25:08.035Z,12.25
2022-10-14T13:28:21.917Z,9.32
2022-10-14T13:31:27.715Z,10.40
2022-10-14T13:34:37.487Z,8.95
2022-10-14T13:37:45.778Z,7.43
2022-10-14T13:40:51.438Z,9.23
2022-10-14T13:43:55.551Z,11.00
2022-10-14T13:47:00.920Z,6.90
2022-10-14T13:50:05.151Z,10.70
2022-10-14T13:53:15.488Z,6.03
2022-10-14T13:56:23.562Z,9.77
2022-10-14T13:59:44.039Z,5.53
2022-10-14T14:02:58.707Z,7.53
2022-10-14T14:06:10.937Z,5.05
2022-10-14T14:09:18.754Z,5.03
2022-10-14T14:12:23.690Z,5.20
2022-10-14T14:15:28.070Z,8.75
2022-10-14T14:18:48.902Z,6.25
2022-10-14T14:22:15.366Z,4.35
2022-10-14T14:25:33.959Z,10.48
2022-10-14T14:28:40.181Z,5.18
2022-10-14T14:35:13.374Z,7.28
2022-10-14T14:38:26.275Z,6.70
2022-10-14T14:41:30.793Z,4.55
2022-10-14T14:44:35.385Z,6.03
2022-10-14T14:47:39.055Z,6.85
2022-10-14T14:50:44.079Z,6.97
2022-10-14T14:53:50.921Z,5.95
2022-10-14T14:56:58.277Z,6.85
2022-10-14T15:00:05.450Z,6.18
2022-10-14T15:03:09.877Z,7.38
2022-10-14T15:06:16.260Z,7.38
2022-10-14T15:09:22.888Z,8.25
2022-10-14T15:12:26.943Z,13.23
2022-10-14T15:15:32.401Z,7.28
2022-10-14T15:18:43.522Z,6.10
2022-10-14T15:21:48.363Z,7.25
2022-10-14T15:24:59.386Z,7.05
2022-10-14T15:28:02.861Z,8.52
2022-10-14T15:31:14.927Z,10.63
2022-10-14T15:34:22.352Z,10.85
2022-10-14T15:37:26.581Z,7.28
2022-10-14T15:40:30.781Z,8.90
2022-10-14T15:43:34.849Z,5.80
2022-10-14T15:46:56.865Z,6.60
2022-10-14T15:50:00.062Z,11.73
2022-10-14T15:53:03.393Z,9.80
2022-10-14T15:56:06.696Z,8.82
2022-10-14T15:59:10.138Z,7.80
2022-10-14T16:02:18.036Z,8.00
2022-10-14T16:05:21.307Z,8.05
2022-10-14T16:08:24.038Z,6.72
2022-10-14T16:11:28.445Z,8.88
2022-10-14T16:14:31.854Z,6.70
2022-10-14T16:17:36.603Z,8.73
2022-10-14T16:20:45.046Z,6.38
2022-10-14T16:23:48.072Z,9.82
2022-10-14T16:26:51.343Z,7.07
2022-10-14T16:29:54.591Z,11.82
2022-10-14T16:32:59.923Z,9.10
2022-10-14T16:36:03.898Z,7.45
2022-10-14T16:39:06.834Z,9.05
2022-10-14T16:42:09.998Z,8.45
2022-10-14T16:45:14.757Z,10.48
2022-10-14T16:48:19.302Z,14.60
2022-10-14T16:51:23.313Z,7.68
2022-10-14T16:54:27.071Z,7.75
2022-10-14T16:57:29.677Z,11.43
2022-10-14T17:00:32.367Z,10.50
2022-10-14T17:03:39.084Z,10.00
2022-10-14T17:06:43.511Z,11.30
2022-10-14T17:09:48.579Z,9.20
2022-10-14T17:12:51.262Z,9.90
2022-10-14T17:15:59.442Z,9.45
2022-10-14T17:19:03.786Z,7.70
2022-10-14T17:22:06.480Z,10.85
2022-10-14T17:25:09.546Z,9.35
2022-10-14T17:28:13.843Z,10.00
2022-10-14T17:31:17.679Z,14.52
2022-10-14T17:34:21.864Z,13.68
2022-10-14T17:37:24.609Z,11.85
2022-10-14T17:40:27.367Z,11.40
2022-10-14T17:43:30.217Z,11.82
2022-10-14T17:46:34.021Z,9.40
2022-10-14T17:49:38.708Z,14.23
2022-10-14T17:52:41.679Z,10.10
2022-10-14T17:55:45.045Z,9.48
2022-10-14T17:58:48.538Z,11.93
2022-10-14T18:02:07.047Z,14.88
2022-10-14T18:05:13.615Z,10.80
2022-10-14T18:08:16.397Z,6.57
2022-10-14T18:11:19.376Z,8.13
2022-10-14T18:14:22.353Z,9.85
2022-10-14T18:17:25.551Z,12.73
2022-10-14T18:20:31.884Z,9.48
2022-10-14T18:23:35.630Z,6.75
2022-10-14T18:26:40.614Z,9.90
2022-10-14T18:29:43.434Z,7.65
2022-10-14T18:32:46.204Z,6.57
2022-10-14T18:35:52.043Z,4.60
2022-10-14T18:38:55.548Z,7.65
2022-10-14T18:41:58.185Z,7.35
2022-10-14T18:45:00.844Z,7.40
2022-10-14T18:48:03.909Z,5.75
2022-10-14T18:51:08.826Z,5.63
2022-10-14T18:54:13.430Z,5.35
2022-10-14T18:57:17.229Z,7.82
2022-10-14T19:00:20.023Z,5.97
2022-10-14T19:03:22.998Z,5.07
2022-10-14T19:06:27.060Z,4.72
2022-10-14T19:09:29.975Z,4.38
2022-10-14T19:12:44.870Z,5.68
2022-10-14T19:15:53.775Z,11.00
2022-10-14T19:18:57.326Z,5.07
2022-10-14T19:22:01.395Z,7.35
2022-10-14T19:25:04.122Z,6.15
2022-10-14T19:28:06.864Z,4.93
2022-10-14T19:31:10.271Z,6.07
2022-10-14T19:34:13.685Z,5.38
2022-10-14T19:37:17.688Z,5.35
2022-10-14T19:40:22.942Z,6.10
2022-10-14T19:43:26.446Z,6.18
2022-10-14T19:46:29.837Z,6.18
2022-10-14T19:49:32.684Z,11.90
2022-10-14T19:52:36.656Z,5.70
2022-10-14T19:55:39.374Z,4.95
2022-10-14T19:58:44.775Z,10.05
2022-10-14T20:01:47.988Z,4.55
2022-10-14T20:04:50.714Z,8.70
2022-10-14T20:07:54.968Z,6.47
2022-10-14T20:10:57.602Z,11.32
2022-10-14T20:14:00.348Z,9.73
2022-10-14T20:17:03.724Z,7.15
2022-10-14T20:20:06.849Z,5.53
2022-10-14T20:23:11.064Z,7.82
2022-10-14T20:26:14.818Z,5.20
2022-10-14T20:29:17.541Z,7.88
2022-10-14T20:32:20.234Z,6.93
2022-10-14T20:35:22.889Z,9.32
2022-10-14T20:38:26.924Z,5.93
2022-10-14T20:41:29.583Z,6.30
2022-10-14T20:44:32.414Z,6.53
2022-10-14T20:47:35.117Z,3.88
2022-10-14T20:50:38.208Z,4.80
2022-10-14T20:53:42.431Z,4.32
2022-10-14T20:56:45.046Z,2.95
2022-10-14T20:59:47.595Z,4.78
2022-10-14T21:02:50.084Z,7.35
2022-10-14T21:05:52.733Z,3.33
2022-10-14T21:08:57.936Z,4.22
2022-10-14T21:12:00.555Z,4.47
2022-10-14T21:15:03.178Z,3.40
2022-10-14T21:18:06.185Z,4.60
2022-10-14T21:21:10.513Z,4.45
2022-10-14T21:24:17.554Z,7.03
2022-10-14T21:27:20.398Z,3.88
2022-10-14T21:30:23.170Z,4.32
2022-10-14T21:33:26.060Z,5.47
2022-10-14T21:36:28.933Z,3.15
2022-10-14T21:39:32.990Z,9.90
2022-10-14T21:42:35.591Z,5.13
2022-10-14T21:45:38.195Z,3.35
2022-10-14T21:48:42.045Z,5.60
2022-10-14T21:51:44.850Z,4.03
2022-10-14T21:54:48.789Z,4.13
2022-10-14T21:57:52.406Z,3.15
2022-10-14T22:01:01.494Z,5.43
2022-10-14T22:04:05.032Z,6.90
2022-10-14T22:07:10.090Z,3.35
2022-10-14T22:10:28.131Z,4.40
2022-10-14T22:13:30.874Z,8.48
2022-10-14T22:16:33.741Z,4.03
2022-10-14T22:19:36.261Z,2.58
2022-10-14T22:22:38.903Z,4.90
2022-10-14T22:25:42.931Z,4.22
2022-10-14T22:28:46.257Z,4.85
2022-10-14T22:31:48.834Z,5.05
2022-10-14T22:34:51.580Z,5.05
2022-10-14T22:37:54.048Z,2.40
2022-10-14T22:41:01.197Z,4.35
2022-10-14T22:44:04.449Z,6.30
2022-10-14T22:47:07.238Z,5.70
2022-10-14T22:50:10.412Z,5.90
2022-10-14T22:53:13.542Z,7.45
2022-10-14T22:56:18.316Z,11.13
2022-10-14T22:59:20.925Z,7.20
2022-10-14T23:02:23.745Z,8.80
2022-10-14T23:05:26.616Z,4.00
2022-10-14T23:08:29.205Z,5.20
2022-10-14T23:11:33.365Z,3.92
2022-10-14T23:14:36.061Z,2.92
2022-10-14T23:17:38.995Z,3.55
2022-10-14T23:20:41.935Z,3.75
2022-10-14T23:23:44.996Z,4.35
2022-10-14T23:26:49.861Z,5.25
2022-10-14T23:29:53.652Z,3.70
2022-10-14T23:32:56.697Z,5.55
2022-10-14T23:36:03.192Z,6.72
2022-10-14T23:39:06.035Z,4.95
2022-10-14T23:42:11.186Z,6.40
2022-10-14T23:45:13.842Z,5.63
2022-10-14T23:48:16.876Z,11.80
2022-10-14T23:51:19.617Z,4.20
2022-10-14T23:54:22.320Z,4.45
2022-10-14T23:57:26.390Z,4.65
